createdAt,value
2018-09-22T00:02:07.798Z,13.10
2018-09-22T00:04:39.323Z,13.10
2018-09-22T00:07:07.303Z,13.10
2018-09-22T00:09:35.491Z,13.10
2018-09-22T00:12:03.621Z,13.10
2018-09-22T00:14:31.707Z,13.00
2018-09-22T00:17:00.010Z,13.00
2018-09-22T00:19:28.284Z,13.00
2018-09-22T00:21:56.956Z,13.10
2018-09-22T00:24:25.071Z,13.10
2018-09-22T00:26:53.041Z,13.10
2018-09-22T00:29:22.042Z,13.00
2018-09-22T00:31:50.121Z,13.00
2018-09-22T00:34:18.551Z,13.10
2018-09-22T00:36:46.657Z,13.00
2018-09-22T00:39:14.798Z,13.10
2018-09-22T00:41:43.250Z,13.10
2018-09-22T00:44:14.441Z,13.00
2018-09-22T00:46:42.429Z,13.00
2018-09-22T00:49:10.439Z,13.00
2018-09-22T00:51:38.639Z,13.00
2018-09-22T00:54:11.050Z,12.90
2018-09-22T00:56:39.527Z,12.80
2018-09-22T00:59:07.600Z,12.80
2018-09-22T01:01:35.604Z,12.80
2018-09-22T01:04:03.732Z,12.80
2018-09-22T01:06:31.802Z,12.80
2018-09-22T01:08:59.930Z,12.80
2018-09-22T01:11:28.144Z,12.80
2018-09-22T01:13:58.223Z,12.80
2018-09-22T01:16:26.223Z,12.80
2018-09-22T01:18:54.391Z,12.80
2018-09-22T01:21:22.549Z,12.80
2018-09-22T01:23:50.647Z,12.80
2018-09-22T01:26:18.921Z,12.80
2018-09-22T01:28:47.041Z,12.80
2018-09-22T01:31:15.111Z,12.70
2018-09-22T01:33:45.158Z,12.70
2018-09-22T01:36:13.289Z,12.70
2018-09-22T01:38:41.352Z,12.70
2018-09-22T01:41:09.577Z,12.70
2018-09-22T01:43:38.707Z,12.70
2018-09-22T01:46:06.809Z,12.70
2018-09-22T01:48:34.926Z,12.70
2018-09-22T01:51:03.030Z,12.60
2018-09-22T01:53:32.133Z,12.60
2018-09-22T01:56:00.672Z,12.60
2018-09-22T01:58:28.723Z,12.60
2018-09-22T02:00:56.755Z,12.60
2018-09-22T02:03:29.357Z,12.60
2018-09-22T02:05:57.448Z,12.50
2018-09-22T02:08:25.447Z,12.50
2018-09-22T02:10:53.624Z,12.60
2018-09-22T02:13:21.712Z,12.50
2018-09-22T02:15:49.695Z,12.50
2018-09-22T02:18:18.375Z,12.50
2018-09-22T02:20:46.535Z,12.50
2018-09-22T02:23:20.381Z,12.40
2018-09-22T02:25:48.342Z,12.40
2018-09-22T02:28:16.453Z,12.30
2018-09-22T02:30:44.466Z,12.40
2018-09-22T02:33:12.724Z,12.40
2018-09-22T02:35:40.937Z,12.30
2018-09-22T02:38:09.086Z,12.30
2018-09-22T02:40:37.076Z,12.30
2018-09-22T02:43:06.185Z,12.30
2018-09-22T02:45:34.650Z,12.20
2018-09-22T02:48:02.745Z,12.30
2018-09-22T02:50:30.901Z,12.30
2018-09-22T02:53:03.104Z,12.30
2018-09-22T02:55:31.326Z,12.20
2018-09-22T02:57:59.433Z,12.20
2018-09-22T03:00:27.959Z,12.20
2018-09-22T03:02:55.979Z,12.20
2018-09-22T03:05:24.011Z,12.10
2018-09-22T03:07:52.307Z,12.20
2018-09-22T03:10:20.443Z,12.10
2018-09-22T03:12:48.628Z,12.00
2018-09-22T03:15:17.030Z,12.10
2018-09-22T03:17:45.013Z,12.10
2018-09-22T03:20:13.019Z,12.10
2018-09-22T03:22:41.338Z,12.10
2018-09-22T03:25:09.401Z,12.10
2018-09-22T03:27:37.454Z,12.10
2018-09-22T03:30:05.490Z,12.10
2018-09-22T03:32:33.434Z,12.10
2018-09-22T03:35:02.556Z,12.10
2018-09-22T03:37:30.603Z,12.00
2018-09-22T03:39:58.674Z,12.00
2018-09-22T03:42:26.787Z,12.00
2018-09-22T03:44:55.173Z,12.10
2018-09-22T03:47:23.550Z,12.10
2018-09-22T03:49:51.477Z,12.00
2018-09-22T03:52:19.745Z,12.10
2018-09-22T03:54:48.879Z,12.10
2018-09-22T03:57:16.988Z,12.10
2018-09-22T03:59:45.183Z,12.10
2018-09-22T04:02:13.371Z,12.10
2018-09-22T04:04:41.497Z,12.10
2018-09-22T04:07:09.749Z,12.10
2018-09-22T04:09:37.848Z,12.00
2018-09-22T04:12:05.970Z,12.00
2018-09-22T04:14:34.141Z,12.00
2018-09-22T04:17:02.267Z,12.00
2018-09-22T04:19:30.261Z,12.00
2018-09-22T04:21:58.442Z,11.90
2018-09-22T04:24:33.446Z,11.90
2018-09-22T04:27:01.724Z,11.90
2018-09-22T04:29:29.849Z,11.90
2018-09-22T04:31:57.887Z,11.90
2018-09-22T04:34:29.537Z,11.90
2018-09-22T04:36:57.773Z,11.90
2018-09-22T04:39:25.982Z,11.90
2018-09-22T04:41:54.434Z,11.90
2018-09-22T04:44:28.228Z,11.90
2018-09-22T04:46:56.587Z,11.90
2018-09-22T04:49:24.561Z,11.90
2018-09-22T04:51:52.683Z,11.90
2018-09-22T04:54:21.035Z,11.90
2018-09-22T04:56:49.222Z,11.90
2018-09-22T04:59:17.346Z,11.90
2018-09-22T05:01:45.404Z,11.90
2018-09-22T05:04:13.449Z,11.90
2018-09-22T05:06:41.470Z,11.90
2018-09-22T05:09:11.441Z,11.90
2018-09-22T05:11:39.437Z,11.90
2018-09-22T05:14:09.511Z,11.90
2018-09-22T05:16:37.610Z,11.90
2018-09-22T05:19:05.748Z,11.80
2018-09-22T05:21:33.797Z,11.80
2018-09-22T05:24:05.339Z,11.80
2018-09-22T05:26:33.445Z,11.70
2018-09-22T05:29:01.449Z,11.80
2018-09-22T05:31:29.649Z,11.80
2018-09-22T05:33:57.695Z,11.90
2018-09-22T05:36:25.860Z,11.90
2018-09-22T05:38:54.082Z,11.90
2018-09-22T05:41:22.459Z,11.90
2018-09-22T05:43:50.586Z,11.90
2018-09-22T05:46:18.902Z,11.90
2018-09-22T05:48:47.007Z,12.00
2018-09-22T05:51:15.116Z,11.90
2018-09-22T05:53:46.779Z,12.00
2018-09-22T05:56:14.809Z,12.00
2018-09-22T05:58:43.869Z,12.00
2018-09-22T06:01:12.102Z,12.00
2018-09-22T06:03:40.202Z,12.00
2018-09-22T06:06:08.425Z,12.00
2018-09-22T06:08:36.734Z,12.00
2018-09-22T06:11:05.144Z,12.10
2018-09-22T06:13:38.203Z,12.10
2018-09-22T06:16:06.550Z,12.10
2018-09-22T06:18:34.552Z,12.10
2018-09-22T06:21:03.036Z,12.10
2018-09-22T06:23:31.278Z,12.10
2018-09-22T06:25:59.591Z,12.20
2018-09-22T06:28:27.884Z,12.10
2018-09-22T06:30:55.988Z,12.20
2018-09-22T06:33:23.958Z,12.20
2018-09-22T06:35:51.965Z,12.20
2018-09-22T06:38:19.886Z,12.20
2018-09-22T06:40:47.728Z,12.20
2018-09-22T06:43:18.013Z,12.30
2018-09-22T06:45:46.074Z,12.30
2018-09-22T06:48:14.536Z,12.30
2018-09-22T06:50:42.428Z,12.40
2018-09-22T06:53:12.344Z,12.40
2018-09-22T06:55:40.336Z,12.50
2018-09-22T06:58:08.433Z,12.60
2018-09-22T07:00:39.590Z,12.70
2018-09-22T07:03:12.090Z,12.80
2018-09-22T07:05:41.120Z,12.90
2018-09-22T07:08:10.463Z,13.00
2018-09-22T07:10:40.186Z,13.10
2018-09-22T07:13:07.999Z,13.20
2018-09-22T07:15:35.882Z,13.40
2018-09-22T07:18:04.461Z,13.50
2018-09-22T07:20:32.885Z,13.60
2018-09-22T07:23:10.288Z,13.70
2018-09-22T07:25:38.356Z,13.70
2018-09-22T07:28:07.309Z,13.90
2018-09-22T07:30:36.928Z,14.10
2018-09-22T07:33:04.818Z,14.30
2018-09-22T07:35:34.159Z,14.50
2018-09-22T07:38:03.084Z,14.40
2018-09-22T07:40:35.670Z,14.30
2018-09-22T07:43:08.135Z,14.30
2018-09-22T07:45:36.056Z,14.20
2018-09-22T07:48:07.000Z,14.30
2018-09-22T07:50:35.897Z,14.40
2018-09-22T07:53:04.621Z,14.40
2018-09-22T07:55:33.306Z,14.50
2018-09-22T07:58:01.442Z,14.50
2018-09-22T08:00:29.387Z,14.60
2018-09-22T08:03:01.451Z,14.60
2018-09-22T08:05:31.831Z,14.60
2018-09-22T08:08:00.032Z,14.60
2018-09-22T08:10:28.101Z,14.50
2018-09-22T08:12:56.437Z,14.40
2018-09-22T08:15:24.385Z,14.30
2018-09-22T08:17:53.192Z,14.20
2018-09-22T08:20:21.159Z,14.00
2018-09-22T08:22:49.205Z,13.80
2018-09-22T08:25:17.508Z,13.70
2018-09-22T08:27:45.697Z,13.70
2018-09-22T08:30:14.312Z,13.70
2018-09-22T08:32:42.359Z,13.80
2018-09-22T08:35:11.284Z,13.90
2018-09-22T08:37:39.274Z,14.10
2018-09-22T08:40:07.282Z,14.20
2018-09-22T08:42:35.178Z,14.40
2018-09-22T08:45:06.921Z,14.60
2018-09-22T08:47:35.360Z,14.70
2018-09-22T08:50:03.530Z,15.00
2018-09-22T08:52:31.470Z,15.10
2018-09-22T08:55:06.669Z,15.20
2018-09-22T08:57:34.742Z,15.20
2018-09-22T09:00:02.809Z,15.30
2018-09-22T09:02:30.887Z,15.50
2018-09-22T09:05:02.330Z,15.60
2018-09-22T09:07:30.386Z,15.90
2018-09-22T09:09:58.496Z,16.00
2018-09-22T09:12:27.239Z,16.10
2018-09-22T09:14:55.232Z,16.30
2018-09-22T09:17:23.222Z,16.30
2018-09-22T09:19:51.247Z,16.30
2018-09-22T09:22:19.218Z,16.20
2018-09-22T09:24:47.336Z,16.20
2018-09-22T09:27:16.642Z,16.40
2018-09-22T09:29:44.628Z,16.40
2018-09-22T09:32:16.137Z,16.40
2018-09-22T09:34:44.611Z,16.40
2018-09-22T09:37:12.576Z,16.40
2018-09-22T09:39:40.508Z,16.40
2018-09-22T09:42:08.436Z,16.40
2018-09-22T09:44:37.402Z,16.50
2018-09-22T09:47:05.338Z,16.60
2018-09-22T09:49:33.373Z,16.70
2018-09-22T09:52:01.384Z,17.00
2018-09-22T09:54:34.661Z,17.20
2018-09-22T09:57:02.710Z,17.20
2018-09-22T09:59:30.666Z,17.20
2018-09-22T10:01:58.655Z,17.10
2018-09-22T10:04:26.609Z,17.10
2018-09-22T10:06:55.284Z,17.20
2018-09-22T10:09:24.647Z,17.20
2018-09-22T10:11:52.798Z,17.20
2018-09-22T10:14:24.607Z,16.90
2018-09-22T10:16:52.656Z,17.00
2018-09-22T10:19:21.741Z,16.90
2018-09-22T10:21:49.861Z,16.90
2018-09-22T10:24:17.956Z,16.80
2018-09-22T10:26:46.074Z,16.90
2018-09-22T10:29:14.030Z,17.00
2018-09-22T10:31:42.000Z,17.00
2018-09-22T10:34:10.772Z,16.90
2018-09-22T10:36:38.828Z,16.70
2018-09-22T10:39:07.664Z,16.70
2018-09-22T10:41:35.654Z,16.70
2018-09-22T10:44:05.705Z,16.60
2018-09-22T10:46:34.048Z,16.60
2018-09-22T10:49:02.063Z,16.50
2018-09-22T10:51:30.036Z,16.30
2018-09-22T10:53:58.066Z,16.20
2018-09-22T10:56:26.145Z,16.20
2018-09-22T10:58:54.097Z,15.90
2018-09-22T11:01:22.132Z,15.90
2018-09-22T11:03:50.077Z,16.00
2018-09-22T11:06:18.087Z,16.10
2018-09-22T11:08:46.271Z,16.10
2018-09-22T11:11:14.662Z,16.30
2018-09-22T11:13:45.218Z,16.40
2018-09-22T11:16:13.356Z,16.60
2018-09-22T11:18:41.388Z,16.90
2018-09-22T11:21:09.724Z,17.00
2018-09-22T11:23:37.767Z,16.90
2018-09-22T11:26:05.884Z,16.80
2018-09-22T11:28:35.521Z,16.60
2018-09-22T11:31:04.060Z,16.70
2018-09-22T11:33:32.128Z,16.90
2018-09-22T11:36:00.282Z,17.00
2018-09-22T11:38:28.437Z,17.10
2018-09-22T11:41:00.298Z,17.10
2018-09-22T11:43:34.522Z,17.00
2018-09-22T11:46:02.621Z,17.00
2018-09-22T11:48:31.048Z,17.10
2018-09-22T11:50:59.868Z,17.30
2018-09-22T11:53:30.427Z,17.20
2018-09-22T11:56:03.151Z,17.30
2018-09-22T11:58:41.182Z,17.20
2018-09-22T12:01:15.516Z,17.30
2018-09-22T12:03:49.612Z,17.20
2018-09-22T12:06:20.672Z,17.00
2018-09-22T12:08:51.820Z,16.80
2018-09-22T12:11:20.974Z,16.90
2018-09-22T12:13:55.359Z,16.80
2018-09-22T12:16:25.629Z,16.80
2018-09-22T12:18:58.748Z,16.70
2018-09-22T12:21:27.241Z,16.60
2018-09-22T12:24:00.341Z,16.40
2018-09-22T12:26:29.179Z,16.30
2018-09-22T12:28:57.531Z,16.30
2018-09-22T12:31:28.217Z,16.30
2018-09-22T12:34:06.149Z,16.20
2018-09-22T12:36:35.878Z,16.20
2018-09-22T12:39:06.638Z,16.20
2018-09-22T12:41:34.848Z,16.30
2018-09-22T12:44:12.836Z,16.20
2018-09-22T12:46:41.765Z,16.20
2018-09-22T12:49:09.984Z,16.20
2018-09-22T12:51:38.157Z,16.10
2018-09-22T12:54:07.772Z,16.00
2018-09-22T12:56:36.260Z,16.00
2018-09-22T12:59:04.486Z,15.90
2018-09-22T13:01:33.182Z,16.00
2018-09-22T13:04:15.129Z,16.00
2018-09-22T13:06:43.365Z,16.10
2018-09-22T13:09:11.986Z,16.00
2018-09-22T13:11:39.968Z,15.90
2018-09-22T13:14:14.560Z,15.80
2018-09-22T13:16:42.808Z,15.80
2018-09-22T13:19:11.428Z,15.80
2018-09-22T13:21:39.729Z,15.60
2018-09-22T13:24:08.054Z,15.50
2018-09-22T13:26:36.754Z,15.30
2018-09-22T13:29:04.818Z,15.10
2018-09-22T13:31:32.986Z,14.90
2018-09-22T13:34:07.973Z,14.80
2018-09-22T13:50:49.116Z,15.00
2018-09-22T13:53:19.450Z,15.00
2018-09-22T13:55:49.720Z,15.00
2018-09-22T13:58:18.637Z,15.00
2018-09-22T14:00:47.215Z,14.90
2018-09-22T14:06:20.723Z,14.90
2018-09-22T14:08:49.454Z,14.90
2018-09-22T14:11:26.461Z,15.10
2018-09-22T14:31:10.770Z,14.90
2018-09-22T14:45:16.840Z,15.00
2018-09-22T14:47:45.325Z,14.90
2018-09-22T14:50:13.780Z,14.70
2018-09-22T14:52:42.527Z,14.60
2018-09-22T14:55:15.796Z,14.60
2018-09-22T14:57:45.295Z,14.60
2018-09-22T15:00:13.571Z,14.50
2018-09-22T15:02:41.761Z,14.50
2018-09-22T15:07:37.205Z,14.50
2018-09-22T15:10:05.769Z,14.30
2018-09-22T15:12:38.280Z,14.30
2018-09-22T15:29:54.586Z,13.90
2018-09-22T15:32:24.555Z,13.90
2018-09-22T15:41:28.377Z,13.90
2018-09-22T15:52:42.771Z,13.90
2018-09-22T15:55:13.348Z,13.80
2018-09-22T15:57:44.040Z,13.80
2018-09-22T16:00:13.459Z,13.70
2018-09-22T16:02:44.799Z,13.80
2018-09-22T16:05:18.743Z,13.80
2018-09-22T16:07:48.073Z,13.80
2018-09-22T16:10:17.355Z,13.80
2018-09-22T16:12:45.574Z,13.70
2018-09-22T16:15:14.221Z,13.80
2018-09-22T16:17:42.541Z,13.80
2018-09-22T16:20:10.683Z,13.80
2018-09-22T16:22:38.780Z,13.80
2018-09-22T16:25:14.559Z,13.80
2018-09-22T16:27:43.320Z,13.80
2018-09-22T16:30:11.536Z,13.70
2018-09-22T16:32:39.645Z,13.70
2018-09-22T16:35:16.322Z,13.70
2018-09-22T16:37:44.510Z,13.60
2018-09-22T16:40:12.567Z,13.60
2018-09-22T16:42:40.674Z,13.50
2018-09-22T16:45:10.020Z,13.50
2018-09-22T16:47:38.057Z,13.50
2018-09-22T16:50:06.401Z,13.50
2018-09-22T16:52:34.577Z,13.40
2018-09-22T16:55:02.752Z,13.50
2018-09-22T16:57:30.994Z,13.50
2018-09-22T16:59:59.154Z,13.40
2018-09-22T17:02:27.245Z,13.30
2018-09-22T17:04:59.648Z,13.30
2018-09-22T17:07:27.734Z,13.30
2018-09-22T17:09:55.843Z,13.30
2018-09-22T17:12:23.912Z,13.30
2018-09-22T17:14:52.869Z,13.20
2018-09-22T17:17:20.869Z,13.20
2018-09-22T17:19:48.984Z,13.20
2018-09-22T17:22:17.454Z,13.20
2018-09-22T17:24:52.708Z,13.10
2018-09-22T17:27:21.044Z,13.10
2018-09-22T17:29:55.821Z,13.10
2018-09-22T17:32:32.349Z,13.10
2018-09-22T17:35:06.703Z,13.00
2018-09-22T17:37:35.988Z,13.00
2018-09-22T17:40:04.395Z,13.10
2018-09-22T17:42:34.399Z,13.00
2018-09-22T17:45:09.836Z,13.10
2018-09-22T17:47:38.018Z,13.00
2018-09-22T17:50:06.122Z,13.10
2018-09-22T17:52:34.239Z,13.00
2018-09-22T17:55:12.430Z,13.00
2018-09-22T17:57:40.583Z,12.90
2018-09-22T18:00:09.309Z,12.90
2018-09-22T18:02:37.418Z,12.90
2018-09-22T18:05:09.272Z,12.90
2018-09-22T18:07:37.343Z,12.90
2018-09-22T18:10:05.491Z,12.80
2018-09-22T18:12:33.535Z,12.80
2018-09-22T18:15:01.613Z,12.70
2018-09-22T18:17:35.044Z,12.70
2018-09-22T18:20:03.817Z,12.70
2018-09-22T18:22:34.728Z,12.70
2018-09-22T18:25:10.717Z,12.70
2018-09-22T18:27:41.259Z,12.70
2018-09-22T18:30:10.587Z,12.70
2018-09-22T18:32:43.365Z,12.70
2018-09-22T18:35:12.589Z,12.60
2018-09-22T18:37:40.770Z,12.60
2018-09-22T18:40:08.881Z,12.50
2018-09-22T18:42:36.910Z,12.50
2018-09-22T18:45:06.282Z,12.50
2018-09-22T18:47:34.363Z,12.40
2018-09-22T18:50:02.501Z,12.50
2018-09-22T18:52:30.723Z,12.50
2018-09-22T18:55:01.339Z,12.50
2018-09-22T18:57:29.877Z,12.40
2018-09-22T18:59:58.105Z,12.40
2018-09-22T19:02:26.974Z,12.50
2018-09-22T19:05:01.157Z,12.50
2018-09-22T19:07:29.484Z,12.50
2018-09-22T19:09:58.472Z,12.50
2018-09-22T19:12:27.099Z,12.30
2018-09-22T19:15:02.374Z,12.40
2018-09-22T19:17:35.185Z,12.40
2018-09-22T19:20:08.454Z,12.40
2018-09-22T19:22:51.298Z,12.40
2018-09-22T19:25:23.199Z,12.40
2018-09-22T19:28:09.742Z,12.40
2018-09-22T19:31:42.788Z,12.40
2018-09-22T19:37:45.306Z,12.40
2018-09-22T19:40:20.728Z,12.40
2018-09-22T19:42:57.036Z,12.50
2018-09-22T19:45:32.732Z,12.40
2018-09-22T19:48:11.925Z,12.40
2018-09-22T19:50:45.454Z,12.40
2018-09-22T19:56:16.675Z,12.40
2018-09-22T19:58:45.733Z,12.40
2018-09-22T20:01:13.980Z,12.40
2018-09-22T20:03:48.933Z,12.30
2018-09-22T20:06:18.501Z,12.30
2018-09-22T20:08:47.812Z,12.40
2018-09-22T20:11:16.399Z,12.30
2018-09-22T20:13:45.931Z,12.40
2018-09-22T20:16:14.666Z,12.30
2018-09-22T20:18:42.899Z,12.30
2018-09-22T20:21:11.236Z,12.30
2018-09-22T20:32:31.998Z,12.20
2018-09-22T20:35:04.335Z,12.30
2018-09-22T20:37:32.995Z,12.30
2018-09-22T20:40:01.547Z,12.30
2018-09-22T20:42:30.511Z,12.30
2018-09-22T20:45:11.173Z,12.30
2018-09-22T20:47:40.433Z,12.40
2018-09-22T20:50:09.996Z,12.40
2018-09-22T20:52:40.593Z,12.40
2018-09-22T20:55:11.971Z,12.40
2018-09-22T20:57:40.903Z,12.40
2018-09-22T21:00:13.179Z,12.50
2018-09-22T21:02:44.323Z,12.50
2018-09-22T21:05:32.741Z,12.40
2018-09-22T21:08:01.804Z,12.40
2018-09-22T21:10:30.317Z,12.40
2018-09-22T21:13:04.469Z,12.40
2018-09-22T21:15:33.637Z,12.40
2018-09-22T21:20:29.787Z,12.40
2018-09-22T21:23:12.555Z,12.40
2018-09-22T21:25:40.991Z,12.30
2018-09-22T21:28:09.572Z,12.30
2018-09-22T21:30:38.301Z,12.30
2018-09-22T21:36:06.669Z,12.30
2018-09-22T21:38:35.343Z,12.40
2018-09-22T21:41:03.990Z,12.30
2018-09-22T21:43:42.107Z,12.40
2018-09-22T21:46:11.370Z,12.30
2018-09-22T21:48:40.971Z,12.30
2018-09-22T21:51:10.133Z,12.40
2018-09-22T21:53:39.667Z,12.40
2018-09-22T21:56:08.329Z,12.40
2018-09-22T21:58:37.600Z,12.50
2018-09-22T22:01:12.143Z,12.40
2018-09-22T22:18:11.796Z,12.40
2018-09-22T22:20:41.082Z,12.40
2018-09-22T22:37:38.287Z,12.30
2018-09-22T22:40:07.067Z,12.40
2018-09-22T22:42:44.468Z,12.40
2018-09-22T22:45:19.809Z,12.40
2018-09-22T22:47:53.511Z,12.50
2018-09-22T22:50:25.321Z,12.40
2018-09-22T22:53:02.147Z,12.40
2018-09-22T22:55:35.849Z,12.40
2018-09-22T22:58:07.455Z,12.50
2018-09-22T23:00:36.311Z,12.30
2018-09-22T23:17:48.289Z,12.30
2018-09-22T23:20:17.394Z,12.30
2018-09-22T23:22:49.218Z,12.30
2018-09-22T23:25:20.263Z,12.20
2018-09-22T23:27:50.739Z,12.20
2018-09-22T23:30:19.517Z,12.20
2018-09-22T23:32:49.399Z,12.20
2018-09-22T23:35:19.451Z,12.10
2018-09-22T23:37:49.370Z,12.10
2018-09-22T23:40:19.400Z,12.10
2018-09-22T23:42:51.163Z,12.10
2018-09-22T23:45:20.008Z,12.10
2018-09-22T23:47:49.809Z,12.20
2018-09-22T23:50:19.090Z,12.20
2018-09-22T23:52:51.716Z,12.20
2018-09-22T23:55:20.568Z,12.10
2018-09-22T23:57:53.938Z,12.10
